sensor_id;sensor_type;location;lat;lon;timestamp;P1;durP1;ratioP1;P2;durP2;ratioP2
71236;SDS011;58984;51.960;5.582;2023-12-20T00:00:13;6.47;;;3.70;;
71236;SDS011;58984;51.960;5.582;2023-12-20T00:02:39;6.30;;;3.60;;
71236;SDS011;58984;51.960;5.582;2023-12-20T00:05:04;12.85;;;4.43;;
71236;SDS011;58984;51.960;5.582;2023-12-20T00:07:31;6.47;;;3.45;;
71236;SDS011;58984;51.960;5.582;2023-12-20T00:09:56;7.68;;;3.78;;
71236;SDS011;58984;51.960;5.582;2023-12-20T00:12:22;7.45;;;3.67;;
71236;SDS011;58984;51.960;5.582;2023-12-20T00:14:47;7.95;;;3.75;;
71236;SDS011;58984;51.960;5.582;2023-12-20T00:17:13;10.20;;;3.72;;
71236;SDS011;58984;51.960;5.582;2023-12-20T00:19:39;9.13;;;3.60;;
71236;SDS011;58984;51.960;5.582;2023-12-20T00:22:05;9.88;;;3.78;;
71236;SDS011;58984;51.960;5.582;2023-12-20T00:24:30;12.05;;;3.53;;
71236;SDS011;58984;51.960;5.582;2023-12-20T00:26:56;7.60;;;3.38;;
71236;SDS011;58984;51.960;5.582;2023-12-20T00:29:22;6.90;;;3.65;;
71236;SDS011;58984;51.960;5.582;2023-12-20T00:31:47;9.25;;;4.25;;
71236;SDS011;58984;51.960;5.582;2023-12-20T00:34:13;6.20;;;3.83;;
71236;SDS011;58984;51.960;5.582;2023-12-20T00:36:39;8.77;;;4.10;;
71236;SDS011;58984;51.960;5.582;2023-12-20T00:39:04;14.95;;;4.18;;
71236;SDS011;58984;51.960;5.582;2023-12-20T00:41:31;12.05;;;4.40;;
71236;SDS011;58984;51.960;5.582;2023-12-20T00:43:57;8.60;;;3.83;;
71236;SDS011;58984;51.960;5.582;2023-12-20T00:46:23;9.20;;;4.00;;
71236;SDS011;58984;51.960;5.582;2023-12-20T00:48:48;10.70;;;3.58;;
71236;SDS011;58984;51.960;5.582;2023-12-20T00:51:14;7.50;;;3.58;;
71236;SDS011;58984;51.960;5.582;2023-12-20T00:53:39;9.23;;;3.90;;
71236;SDS011;58984;51.960;5.582;2023-12-20T00:56:05;7.70;;;4.38;;
71236;SDS011;58984;51.960;5.582;2023-12-20T00:58:31;9.35;;;3.63;;
71236;SDS011;58984;51.960;5.582;2023-12-20T01:00:57;10.05;;;4.05;;
71236;SDS011;58984;51.960;5.582;2023-12-20T01:03:23;9.20;;;3.80;;
71236;SDS011;58984;51.960;5.582;2023-12-20T01:05:48;12.23;;;4.03;;
71236;SDS011;58984;51.960;5.582;2023-12-20T01:08:14;10.90;;;3.97;;
71236;SDS011;58984;51.960;5.582;2023-12-20T01:10:40;10.07;;;4.10;;
71236;SDS011;58984;51.960;5.582;2023-12-20T01:13:05;11.40;;;3.95;;
71236;SDS011;58984;51.960;5.582;2023-12-20T01:15:31;9.55;;;3.80;;
71236;SDS011;58984;51.960;5.582;2023-12-20T01:17:57;13.32;;;4.03;;
71236;SDS011;58984;51.960;5.582;2023-12-20T01:20:24;7.43;;;3.90;;
71236;SDS011;58984;51.960;5.582;2023-12-20T01:22:50;9.73;;;4.10;;
71236;SDS011;58984;51.960;5.582;2023-12-20T01:25:16;12.23;;;4.13;;
71236;SDS011;58984;51.960;5.582;2023-12-20T01:27:41;10.00;;;4.05;;
71236;SDS011;58984;51.960;5.582;2023-12-20T01:30:07;5.05;;;3.10;;
71236;SDS011;58984;51.960;5.582;2023-12-20T01:32:33;8.98;;;3.70;;
71236;SDS011;58984;51.960;5.582;2023-12-20T01:34:59;8.20;;;3.80;;
71236;SDS011;58984;51.960;5.582;2023-12-20T01:37:24;11.93;;;3.60;;
71236;SDS011;58984;51.960;5.582;2023-12-20T01:39:51;10.43;;;3.97;;
71236;SDS011;58984;51.960;5.582;2023-12-20T01:42:18;7.97;;;3.80;;
71236;SDS011;58984;51.960;5.582;2023-12-20T01:44:43;8.32;;;3.60;;
71236;SDS011;58984;51.960;5.582;2023-12-20T01:47:09;8.40;;;3.50;;
71236;SDS011;58984;51.960;5.582;2023-12-20T01:49:35;9.60;;;3.67;;
71236;SDS011;58984;51.960;5.582;2023-12-20T01:52:01;7.55;;;3.40;;
71236;SDS011;58984;51.960;5.582;2023-12-20T01:54:27;11.38;;;3.92;;
71236;SDS011;58984;51.960;5.582;2023-12-20T01:56:52;7.07;;;3.13;;
71236;SDS011;58984;51.960;5.582;2023-12-20T01:59:18;8.05;;;3.65;;
71236;SDS011;58984;51.960;5.582;2023-12-20T02:01:46;9.57;;;3.10;;
71236;SDS011;58984;51.960;5.582;2023-12-20T02:04:12;7.85;;;3.00;;
71236;SDS011;58984;51.960;5.582;2023-12-20T02:06:38;7.82;;;3.03;;
71236;SDS011;58984;51.960;5.582;2023-12-20T02:09:05;6.45;;;3.50;;
71236;SDS011;58984;51.960;5.582;2023-12-20T02:11:32;8.77;;;3.17;;
71236;SDS011;58984;51.960;5.582;2023-12-20T02:13:58;5.40;;;3.15;;
71236;SDS011;58984;51.960;5.582;2023-12-20T02:16:24;5.78;;;3.22;;
71236;SDS011;58984;51.960;5.582;2023-12-20T02:18:49;9.65;;;4.13;;
71236;SDS011;58984;51.960;5.582;2023-12-20T02:21:15;9.27;;;3.47;;
71236;SDS011;58984;51.960;5.582;2023-12-20T02:23:41;9.15;;;3.25;;
71236;SDS011;58984;51.960;5.582;2023-12-20T02:26:06;8.25;;;3.55;;
71236;SDS011;58984;51.960;5.582;2023-12-20T02:28:32;8.80;;;3.60;;
71236;SDS011;58984;51.960;5.582;2023-12-20T02:30:59;9.45;;;3.60;;
71236;SDS011;58984;51.960;5.582;2023-12-20T02:33:24;8.55;;;3.58;;
71236;SDS011;58984;51.960;5.582;2023-12-20T02:35:50;7.45;;;3.65;;
71236;SDS011;58984;51.960;5.582;2023-12-20T02:38:17;9.23;;;3.70;;
71236;SDS011;58984;51.960;5.582;2023-12-20T02:40:43;10.85;;;3.80;;
71236;SDS011;58984;51.960;5.582;2023-12-20T02:43:08;5.85;;;3.17;;
71236;SDS011;58984;51.960;5.582;2023-12-20T02:45:34;8.23;;;3.67;;
71236;SDS011;58984;51.960;5.582;2023-12-20T02:48:00;8.18;;;4.10;;
71236;SDS011;58984;51.960;5.582;2023-12-20T02:50:25;10.15;;;3.90;;
71236;SDS011;58984;51.960;5.582;2023-12-20T02:52:51;9.82;;;3.95;;
71236;SDS011;58984;51.960;5.582;2023-12-20T02:55:17;8.50;;;3.92;;
71236;SDS011;58984;51.960;5.582;2023-12-20T02:57:42;9.68;;;3.75;;
71236;SDS011;58984;51.960;5.582;2023-12-20T03:00:08;8.02;;;3.95;;
71236;SDS011;58984;51.960;5.582;2023-12-20T03:02:35;8.07;;;3.47;;
71236;SDS011;58984;51.960;5.582;2023-12-20T03:05:01;14.80;;;4.28;;
71236;SDS011;58984;51.960;5.582;2023-12-20T03:07:27;8.02;;;3.83;;
71236;SDS011;58984;51.960;5.582;2023-12-20T03:09:53;14.57;;;4.13;;
71236;SDS011;58984;51.960;5.582;2023-12-20T03:12:18;9.63;;;4.60;;
71236;SDS011;58984;51.960;5.582;2023-12-20T03:14:44;11.43;;;3.90;;
71236;SDS011;58984;51.960;5.582;2023-12-20T03:17:10;13.77;;;4.45;;
71236;SDS011;58984;51.960;5.582;2023-12-20T03:19:35;13.07;;;4.45;;
71236;SDS011;58984;51.960;5.582;2023-12-20T03:22:01;7.15;;;3.85;;
71236;SDS011;58984;51.960;5.582;2023-12-20T03:24:27;9.15;;;4.10;;
71236;SDS011;58984;51.960;5.582;2023-12-20T03:26:53;10.77;;;4.43;;
71236;SDS011;58984;51.960;5.582;2023-12-20T03:29:18;7.53;;;4.38;;
71236;SDS011;58984;51.960;5.582;2023-12-20T03:31:44;13.95;;;4.47;;
71236;SDS011;58984;51.960;5.582;2023-12-20T03:34:10;8.98;;;3.92;;
71236;SDS011;58984;51.960;5.582;2023-12-20T03:36:36;10.30;;;4.47;;
71236;SDS011;58984;51.960;5.582;2023-12-20T03:39:02;9.02;;;4.13;;
71236;SDS011;58984;51.960;5.582;2023-12-20T03:41:28;8.60;;;4.22;;
71236;SDS011;58984;51.960;5.582;2023-12-20T03:43:53;14.57;;;4.05;;
71236;SDS011;58984;51.960;5.582;2023-12-20T03:46:19;11.05;;;4.13;;
71236;SDS011;58984;51.960;5.582;2023-12-20T03:48:45;10.30;;;4.10;;
71236;SDS011;58984;51.960;5.582;2023-12-20T03:51:10;13.70;;;4.60;;
71236;SDS011;58984;51.960;5.582;2023-12-20T03:53:36;9.85;;;4.40;;
71236;SDS011;58984;51.960;5.582;2023-12-20T03:56:02;9.00;;;3.97;;
71236;SDS011;58984;51.960;5.582;2023-12-20T03:58:28;11.05;;;4.30;;
71236;SDS011;58984;51.960;5.582;2023-12-20T04:00:54;9.20;;;3.90;;
71236;SDS011;58984;51.960;5.582;2023-12-20T04:03:19;10.90;;;4.40;;
71236;SDS011;58984;51.960;5.582;2023-12-20T04:05:45;9.80;;;3.90;;
71236;SDS011;58984;51.960;5.582;2023-12-20T04:08:11;17.05;;;4.43;;
71236;SDS011;58984;51.960;5.582;2023-12-20T04:10:37;10.65;;;4.32;;
71236;SDS011;58984;51.960;5.582;2023-12-20T04:13:03;8.73;;;4.13;;
71236;SDS011;58984;51.960;5.582;2023-12-20T04:15:29;13.75;;;4.40;;
71236;SDS011;58984;51.960;5.582;2023-12-20T04:17:55;8.30;;;4.03;;
71236;SDS011;58984;51.960;5.582;2023-12-20T04:20:20;6.82;;;3.78;;
71236;SDS011;58984;51.960;5.582;2023-12-20T04:22:46;11.30;;;3.97;;
71236;SDS011;58984;51.960;5.582;2023-12-20T04:25:12;10.00;;;4.20;;
71236;SDS011;58984;51.960;5.582;2023-12-20T04:27:38;10.25;;;3.95;;
71236;SDS011;58984;51.960;5.582;2023-12-20T04:30:03;14.00;;;4.32;;
71236;SDS011;58984;51.960;5.582;2023-12-20T04:32:29;10.63;;;4.10;;
71236;SDS011;58984;51.960;5.582;2023-12-20T04:34:56;15.77;;;4.53;;
71236;SDS011;58984;51.960;5.582;2023-12-20T04:37:22;13.13;;;4.43;;
71236;SDS011;58984;51.960;5.582;2023-12-20T04:39:47;8.40;;;4.22;;
71236;SDS011;58984;51.960;5.582;2023-12-20T04:42:13;12.50;;;3.97;;
71236;SDS011;58984;51.960;5.582;2023-12-20T04:44:39;15.70;;;4.07;;
71236;SDS011;58984;51.960;5.582;2023-12-20T04:47:04;8.35;;;3.65;;
71236;SDS011;58984;51.960;5.582;2023-12-20T04:49:30;9.30;;;3.70;;
71236;SDS011;58984;51.960;5.582;2023-12-20T04:51:56;10.68;;;5.05;;
71236;SDS011;58984;51.960;5.582;2023-12-20T04:54:21;7.53;;;3.85;;
71236;SDS011;58984;51.960;5.582;2023-12-20T04:56:47;8.85;;;3.85;;
71236;SDS011;58984;51.960;5.582;2023-12-20T04:59:13;12.73;;;4.15;;
71236;SDS011;58984;51.960;5.582;2023-12-20T05:01:38;15.32;;;4.60;;
71236;SDS011;58984;51.960;5.582;2023-12-20T05:04:04;10.05;;;4.25;;
71236;SDS011;58984;51.960;5.582;2023-12-20T05:06:30;7.43;;;3.28;;
71236;SDS011;58984;51.960;5.582;2023-12-20T05:08:55;5.68;;;3.42;;
71236;SDS011;58984;51.960;5.582;2023-12-20T05:11:21;10.50;;;3.60;;
71236;SDS011;58984;51.960;5.582;2023-12-20T05:13:46;7.82;;;4.10;;
71236;SDS011;58984;51.960;5.582;2023-12-20T05:16:12;10.93;;;4.22;;
71236;SDS011;58984;51.960;5.582;2023-12-20T05:18:39;7.93;;;3.70;;
71236;SDS011;58984;51.960;5.582;2023-12-20T05:21:05;9.43;;;4.10;;
71236;SDS011;58984;51.960;5.582;2023-12-20T05:23:31;14.65;;;4.82;;
71236;SDS011;58984;51.960;5.582;2023-12-20T05:25:56;12.77;;;4.03;;
71236;SDS011;58984;51.960;5.582;2023-12-20T05:28:22;8.75;;;4.53;;
71236;SDS011;58984;51.960;5.582;2023-12-20T05:30:48;13.40;;;4.15;;
71236;SDS011;58984;51.960;5.582;2023-12-20T05:33:13;9.40;;;3.85;;
71236;SDS011;58984;51.960;5.582;2023-12-20T05:35:39;10.98;;;3.72;;
71236;SDS011;58984;51.960;5.582;2023-12-20T05:38:04;12.55;;;3.92;;
71236;SDS011;58984;51.960;5.582;2023-12-20T05:40:30;13.73;;;4.03;;
71236;SDS011;58984;51.960;5.582;2023-12-20T05:42:56;10.10;;;3.50;;
71236;SDS011;58984;51.960;5.582;2023-12-20T05:45:21;11.48;;;4.15;;
71236;SDS011;58984;51.960;5.582;2023-12-20T05:47:47;14.10;;;3.50;;
71236;SDS011;58984;51.960;5.582;2023-12-20T05:50:12;12.57;;;4.20;;
71236;SDS011;58984;51.960;5.582;2023-12-20T05:52:38;10.93;;;3.63;;
71236;SDS011;58984;51.960;5.582;2023-12-20T05:55:04;12.75;;;4.07;;
71236;SDS011;58984;51.960;5.582;2023-12-20T05:57:29;7.65;;;3.80;;
71236;SDS011;58984;51.960;5.582;2023-12-20T05:59:55;9.45;;;3.67;;
71236;SDS011;58984;51.960;5.582;2023-12-20T06:02:21;15.82;;;4.07;;
71236;SDS011;58984;51.960;5.582;2023-12-20T06:04:46;10.13;;;3.95;;
71236;SDS011;58984;51.960;5.582;2023-12-20T06:07:12;8.02;;;3.92;;
71236;SDS011;58984;51.960;5.582;2023-12-20T06:09:38;8.40;;;3.83;;
71236;SDS011;58984;51.960;5.582;2023-12-20T06:12:04;7.45;;;3.97;;
71236;SDS011;58984;51.960;5.582;2023-12-20T06:14:29;9.48;;;3.83;;
71236;SDS011;58984;51.960;5.582;2023-12-20T06:16:56;8.07;;;4.28;;
71236;SDS011;58984;51.960;5.582;2023-12-20T06:19:22;8.18;;;3.78;;
71236;SDS011;58984;51.960;5.582;2023-12-20T06:21:48;12.25;;;4.07;;
71236;SDS011;58984;51.960;5.582;2023-12-20T06:24:13;10.18;;;3.97;;
71236;SDS011;58984;51.960;5.582;2023-12-20T06:26:39;12.52;;;4.03;;
71236;SDS011;58984;51.960;5.582;2023-12-20T06:29:05;10.18;;;3.92;;
71236;SDS011;58984;51.960;5.582;2023-12-20T06:31:30;9.25;;;4.00;;
71236;SDS011;58984;51.960;5.582;2023-12-20T06:33:58;11.23;;;4.03;;
71236;SDS011;58984;51.960;5.582;2023-12-20T06:36:25;10.18;;;4.10;;
71236;SDS011;58984;51.960;5.582;2023-12-20T06:38:53;7.28;;;3.65;;
71236;SDS011;58984;51.960;5.582;2023-12-20T06:41:19;12.43;;;3.90;;
71236;SDS011;58984;51.960;5.582;2023-12-20T06:43:45;8.27;;;4.43;;
71236;SDS011;58984;51.960;5.582;2023-12-20T06:46:10;12.02;;;4.72;;
71236;SDS011;58984;51.960;5.582;2023-12-20T06:48:38;6.55;;;3.70;;
71236;SDS011;58984;51.960;5.582;2023-12-20T06:51:04;9.30;;;4.32;;
71236;SDS011;58984;51.960;5.582;2023-12-20T06:53:30;12.52;;;4.10;;
71236;SDS011;58984;51.960;5.582;2023-12-20T06:55:56;8.35;;;4.47;;
71236;SDS011;58984;51.960;5.582;2023-12-20T06:58:22;11.35;;;4.00;;
71236;SDS011;58984;51.960;5.582;2023-12-20T07:00:48;10.50;;;4.25;;
71236;SDS011;58984;51.960;5.582;2023-12-20T07:03:14;20.55;;;4.57;;
71236;SDS011;58984;51.960;5.582;2023-12-20T07:05:39;13.88;;;4.30;;
71236;SDS011;58984;51.960;5.582;2023-12-20T07:08:06;8.50;;;3.88;;
71236;SDS011;58984;51.960;5.582;2023-12-20T07:10:31;8.40;;;3.95;;
71236;SDS011;58984;51.960;5.582;2023-12-20T07:12:57;9.73;;;4.45;;
71236;SDS011;58984;51.960;5.582;2023-12-20T07:15:23;14.43;;;4.55;;
71236;SDS011;58984;51.960;5.582;2023-12-20T07:17:49;12.68;;;4.30;;
71236;SDS011;58984;51.960;5.582;2023-12-20T07:20:14;11.93;;;4.10;;
71236;SDS011;58984;51.960;5.582;2023-12-20T07:22:40;9.60;;;3.92;;
71236;SDS011;58984;51.960;5.582;2023-12-20T07:25:06;11.05;;;4.00;;
71236;SDS011;58984;51.960;5.582;2023-12-20T07:27:32;11.80;;;4.00;;
71236;SDS011;58984;51.960;5.582;2023-12-20T07:29:58;14.20;;;4.13;;
71236;SDS011;58984;51.960;5.582;2023-12-20T07:32:24;14.60;;;4.28;;
71236;SDS011;58984;51.960;5.582;2023-12-20T07:34:49;12.50;;;4.30;;
71236;SDS011;58984;51.960;5.582;2023-12-20T07:37:15;11.00;;;4.32;;
71236;SDS011;58984;51.960;5.582;2023-12-20T07:39:41;9.85;;;3.70;;
71236;SDS011;58984;51.960;5.582;2023-12-20T07:42:07;9.60;;;4.55;;
71236;SDS011;58984;51.960;5.582;2023-12-20T07:44:34;13.65;;;4.88;;
71236;SDS011;58984;51.960;5.582;2023-12-20T07:47:00;15.65;;;5.18;;
71236;SDS011;58984;51.960;5.582;2023-12-20T07:49:26;10.70;;;4.50;;
71236;SDS011;58984;51.960;5.582;2023-12-20T07:51:52;10.25;;;4.32;;
71236;SDS011;58984;51.960;5.582;2023-12-20T07:54:18;12.63;;;5.05;;
71236;SDS011;58984;51.960;5.582;2023-12-20T07:56:45;16.50;;;4.32;;
71236;SDS011;58984;51.960;5.582;2023-12-20T07:59:11;10.65;;;4.65;;
71236;SDS011;58984;51.960;5.582;2023-12-20T08:01:37;6.70;;;4.30;;
71236;SDS011;58984;51.960;5.582;2023-12-20T08:04:02;7.30;;;4.28;;
71236;SDS011;58984;51.960;5.582;2023-12-20T08:06:28;9.23;;;3.83;;
71236;SDS011;58984;51.960;5.582;2023-12-20T08:08:54;13.23;;;4.80;;
71236;SDS011;58984;51.960;5.582;2023-12-20T08:11:19;9.20;;;4.32;;
71236;SDS011;58984;51.960;5.582;2023-12-20T08:13:45;11.68;;;5.28;;
71236;SDS011;58984;51.960;5.582;2023-12-20T08:16:11;8.95;;;4.22;;
71236;SDS011;58984;51.960;5.582;2023-12-20T08:18:38;14.05;;;4.32;;
71236;SDS011;58984;51.960;5.582;2023-12-20T08:21:04;15.63;;;4.63;;
71236;SDS011;58984;51.960;5.582;2023-12-20T08:23:32;15.50;;;4.60;;
71236;SDS011;58984;51.960;5.582;2023-12-20T08:25:58;10.55;;;4.70;;
71236;SDS011;58984;51.960;5.582;2023-12-20T08:28:28;9.77;;;4.35;;
71236;SDS011;58984;51.960;5.582;2023-12-20T08:30:54;11.10;;;4.75;;
71236;SDS011;58984;51.960;5.582;2023-12-20T08:33:19;14.82;;;4.15;;
71236;SDS011;58984;51.960;5.582;2023-12-20T08:35:45;12.35;;;4.43;;
71236;SDS011;58984;51.960;5.582;2023-12-20T08:38:11;10.80;;;4.63;;
71236;SDS011;58984;51.960;5.582;2023-12-20T08:40:37;8.65;;;4.60;;
71236;SDS011;58984;51.960;5.582;2023-12-20T08:43:03;14.70;;;4.63;;
71236;SDS011;58984;51.960;5.582;2023-12-20T08:45:28;15.15;;;5.50;;
71236;SDS011;58984;51.960;5.582;2023-12-20T08:47:54;9.05;;;4.55;;
71236;SDS011;58984;51.960;5.582;2023-12-20T08:50:20;17.15;;;5.38;;
71236;SDS011;58984;51.960;5.582;2023-12-20T08:52:46;10.27;;;4.20;;
71236;SDS011;58984;51.960;5.582;2023-12-20T08:55:12;16.10;;;5.38;;
71236;SDS011;58984;51.960;5.582;2023-12-20T08:57:38;10.65;;;4.32;;
71236;SDS011;58984;51.960;5.582;2023-12-20T09:00:03;11.77;;;4.57;;
71236;SDS011;58984;51.960;5.582;2023-12-20T09:02:30;13.02;;;4.70;;
71236;SDS011;58984;51.960;5.582;2023-12-20T09:04:55;11.43;;;4.40;;
71236;SDS011;58984;51.960;5.582;2023-12-20T09:07:25;15.55;;;4.70;;
71236;SDS011;58984;51.960;5.582;2023-12-20T09:09:51;13.40;;;4.60;;
71236;SDS011;58984;51.960;5.582;2023-12-20T09:12:18;12.55;;;4.72;;
71236;SDS011;58984;51.960;5.582;2023-12-20T09:14:44;12.55;;;4.97;;
71236;SDS011;58984;51.960;5.582;2023-12-20T09:17:11;13.10;;;4.88;;
71236;SDS011;58984;51.960;5.582;2023-12-20T09:19:37;17.80;;;5.07;;
71236;SDS011;58984;51.960;5.582;2023-12-20T09:22:03;12.18;;;4.93;;
71236;SDS011;58984;51.960;5.582;2023-12-20T09:24:30;7.95;;;4.35;;
71236;SDS011;58984;51.960;5.582;2023-12-20T09:26:55;18.20;;;5.43;;
71236;SDS011;58984;51.960;5.582;2023-12-20T09:29:21;10.52;;;5.50;;
71236;SDS011;58984;51.960;5.582;2023-12-20T09:31:47;8.85;;;4.82;;
71236;SDS011;58984;51.960;5.582;2023-12-20T09:34:14;9.32;;;4.68;;
71236;SDS011;58984;51.960;5.582;2023-12-20T09:36:46;12.18;;;4.72;;
71236;SDS011;58984;51.960;5.582;2023-12-20T09:39:16;14.93;;;5.32;;
71236;SDS011;58984;51.960;5.582;2023-12-20T09:41:56;14.43;;;5.63;;
71236;SDS011;58984;51.960;5.582;2023-12-20T09:44:26;11.77;;;4.93;;
71236;SDS011;58984;51.960;5.582;2023-12-20T09:46:52;13.00;;;4.65;;
71236;SDS011;58984;51.960;5.582;2023-12-20T09:49:19;13.50;;;5.20;;
71236;SDS011;58984;51.960;5.582;2023-12-20T09:51:46;10.65;;;4.68;;
71236;SDS011;58984;51.960;5.582;2023-12-20T09:54:15;13.90;;;5.22;;
71236;SDS011;58984;51.960;5.582;2023-12-20T09:56:42;16.13;;;6.63;;
71236;SDS011;58984;51.960;5.582;2023-12-20T09:59:09;16.05;;;5.60;;
71236;SDS011;58984;51.960;5.582;2023-12-20T10:01:47;10.65;;;6.45;;
71236;SDS011;58984;51.960;5.582;2023-12-20T10:04:13;10.63;;;5.88;;
71236;SDS011;58984;51.960;5.582;2023-12-20T10:06:43;18.85;;;5.88;;
71236;SDS011;58984;51.960;5.582;2023-12-20T10:09:10;19.80;;;6.65;;
71236;SDS011;58984;51.960;5.582;2023-12-20T10:11:40;12.15;;;5.55;;
71236;SDS011;58984;51.960;5.582;2023-12-20T10:14:06;10.63;;;4.72;;
71236;SDS011;58984;51.960;5.582;2023-12-20T10:16:32;15.55;;;5.68;;
71236;SDS011;58984;51.960;5.582;2023-12-20T10:18:58;7.03;;;4.57;;
71236;SDS011;58984;51.960;5.582;2023-12-20T10:21:25;10.07;;;4.32;;
71236;SDS011;58984;51.960;5.582;2023-12-20T10:23:54;14.32;;;5.07;;
71236;SDS011;58984;51.960;5.582;2023-12-20T10:26:21;14.50;;;4.70;;
71236;SDS011;58984;51.960;5.582;2023-12-20T10:28:54;13.48;;;5.72;;
71236;SDS011;58984;51.960;5.582;2023-12-20T10:33:53;9.60;;;4.43;;
71236;SDS011;58984;51.960;5.582;2023-12-20T10:36:20;10.75;;;5.13;;
71236;SDS011;58984;51.960;5.582;2023-12-20T10:38:46;10.65;;;5.45;;
71236;SDS011;58984;51.960;5.582;2023-12-20T10:41:16;10.50;;;5.18;;
71236;SDS011;58984;51.960;5.582;2023-12-20T10:43:49;11.60;;;4.63;;
71236;SDS011;58984;51.960;5.582;2023-12-20T10:46:16;8.32;;;3.65;;
71236;SDS011;58984;51.960;5.582;2023-12-20T10:48:44;10.23;;;4.22;;
71236;SDS011;58984;51.960;5.582;2023-12-20T10:51:11;11.93;;;4.82;;
71236;SDS011;58984;51.960;5.582;2023-12-20T10:53:42;11.25;;;4.50;;
71236;SDS011;58984;51.960;5.582;2023-12-20T10:56:09;7.70;;;4.32;;
71236;SDS011;58984;51.960;5.582;2023-12-20T10:58:39;13.15;;;4.95;;
71236;SDS011;58984;51.960;5.582;2023-12-20T11:01:07;13.10;;;4.60;;
71236;SDS011;58984;51.960;5.582;2023-12-20T11:03:34;22.23;;;5.53;;
71236;SDS011;58984;51.960;5.582;2023-12-20T11:06:04;9.43;;;4.65;;
71236;SDS011;58984;51.960;5.582;2023-12-20T11:08:36;13.27;;;4.78;;
71236;SDS011;58984;51.960;5.582;2023-12-20T11:11:11;8.60;;;3.65;;
71236;SDS011;58984;51.960;5.582;2023-12-20T11:13:48;6.68;;;3.90;;
71236;SDS011;58984;51.960;5.582;2023-12-20T11:16:22;8.13;;;3.78;;
71236;SDS011;58984;51.960;5.582;2023-12-20T11:18:48;12.43;;;4.72;;
71236;SDS011;58984;51.960;5.582;2023-12-20T11:21:16;7.40;;;3.45;;
71236;SDS011;58984;51.960;5.582;2023-12-20T11:23:42;11.40;;;4.00;;
71236;SDS011;58984;51.960;5.582;2023-12-20T11:26:07;8.32;;;3.45;;
71236;SDS011;58984;51.960;5.582;2023-12-20T11:28:33;8.52;;;4.28;;
71236;SDS011;58984;51.960;5.582;2023-12-20T11:31:00;7.80;;;3.63;;
71236;SDS011;58984;51.960;5.582;2023-12-20T11:33:29;9.70;;;3.83;;
71236;SDS011;58984;51.960;5.582;2023-12-20T11:36:02;5.75;;;3.13;;
71236;SDS011;58984;51.960;5.582;2023-12-20T11:38:38;9.32;;;4.35;;
71236;SDS011;58984;51.960;5.582;2023-12-20T11:41:05;11.25;;;3.28;;
71236;SDS011;58984;51.960;5.582;2023-12-20T11:46:06;8.85;;;3.90;;
71236;SDS011;58984;51.960;5.582;2023-12-20T11:48:39;8.90;;;4.00;;
71236;SDS011;58984;51.960;5.582;2023-12-20T11:51:11;11.75;;;4.20;;
71236;SDS011;58984;51.960;5.582;2023-12-20T11:53:37;6.95;;;2.90;;
71236;SDS011;58984;51.960;5.582;2023-12-20T11:56:04;13.50;;;4.80;;
71236;SDS011;58984;51.960;5.582;2023-12-20T11:58:32;10.13;;;4.00;;
71236;SDS011;58984;51.960;5.582;2023-12-20T12:00:58;6.13;;;3.30;;
71236;SDS011;58984;51.960;5.582;2023-12-20T12:03:24;8.52;;;3.80;;
71236;SDS011;58984;51.960;5.582;2023-12-20T12:05:49;7.43;;;3.63;;
71236;SDS011;58984;51.960;5.582;2023-12-20T12:08:15;3.08;;;2.67;;
71236;SDS011;58984;51.960;5.582;2023-12-20T12:10:42;15.95;;;4.15;;
71236;SDS011;58984;51.960;5.582;2023-12-20T12:13:09;7.22;;;3.30;;
71236;SDS011;58984;51.960;5.582;2023-12-20T12:15:35;9.13;;;4.03;;
71236;SDS011;58984;51.960;5.582;2023-12-20T12:18:01;10.50;;;3.20;;
71236;SDS011;58984;51.960;5.582;2023-12-20T12:20:27;11.70;;;3.72;;
71236;SDS011;58984;51.960;5.582;2023-12-20T12:23:03;8.00;;;3.60;;
71236;SDS011;58984;51.960;5.582;2023-12-20T12:25:30;9.07;;;3.55;;
71236;SDS011;58984;51.960;5.582;2023-12-20T12:27:56;6.32;;;2.60;;
71236;SDS011;58984;51.960;5.582;2023-12-20T12:30:23;5.82;;;2.90;;
71236;SDS011;58984;51.960;5.582;2023-12-20T12:32:50;7.40;;;3.22;;
71236;SDS011;58984;51.960;5.582;2023-12-20T12:35:17;8.50;;;3.58;;
71236;SDS011;58984;51.960;5.582;2023-12-20T12:37:43;5.95;;;3.42;;
71236;SDS011;58984;51.960;5.582;2023-12-20T12:40:12;4.95;;;2.53;;
71236;SDS011;58984;51.960;5.582;2023-12-20T12:42:39;9.95;;;3.58;;
71236;SDS011;58984;51.960;5.582;2023-12-20T12:45:06;6.22;;;3.17;;
71236;SDS011;58984;51.960;5.582;2023-12-20T12:47:32;4.75;;;2.85;;
71236;SDS011;58984;51.960;5.582;2023-12-20T12:49:59;5.43;;;2.80;;
71236;SDS011;58984;51.960;5.582;2023-12-20T12:52:25;8.88;;;2.95;;
71236;SDS011;58984;51.960;5.582;2023-12-20T12:54:51;4.22;;;2.78;;
71236;SDS011;58984;51.960;5.582;2023-12-20T12:57:17;7.43;;;3.30;;
71236;SDS011;58984;51.960;5.582;2023-12-20T12:59:44;5.03;;;2.70;;
71236;SDS011;58984;51.960;5.582;2023-12-20T13:02:11;8.65;;;3.30;;
71236;SDS011;58984;51.960;5.582;2023-12-20T13:04:41;8.02;;;3.03;;
71236;SDS011;58984;51.960;5.582;2023-12-20T13:07:08;4.13;;;2.50;;
71236;SDS011;58984;51.960;5.582;2023-12-20T13:09:36;6.63;;;3.28;;
71236;SDS011;58984;51.960;5.582;2023-12-20T13:12:02;7.22;;;3.20;;
71236;SDS011;58984;51.960;5.582;2023-12-20T13:14:29;5.72;;;2.63;;
71236;SDS011;58984;51.960;5.582;2023-12-20T13:16:56;7.30;;;3.17;;
71236;SDS011;58984;51.960;5.582;2023-12-20T13:19:22;13.52;;;3.50;;
71236;SDS011;58984;51.960;5.582;2023-12-20T13:21:47;7.70;;;2.70;;
71236;SDS011;58984;51.960;5.582;2023-12-20T13:24:13;10.40;;;3.47;;
71236;SDS011;58984;51.960;5.582;2023-12-20T13:26:39;5.88;;;3.00;;
71236;SDS011;58984;51.960;5.582;2023-12-20T13:29:05;5.22;;;2.83;;
71236;SDS011;58984;51.960;5.582;2023-12-20T13:31:30;6.38;;;2.50;;
71236;SDS011;58984;51.960;5.582;2023-12-20T13:33:56;6.43;;;2.95;;
71236;SDS011;58984;51.960;5.582;2023-12-20T13:36:22;7.78;;;3.17;;
71236;SDS011;58984;51.960;5.582;2023-12-20T13:38:47;5.30;;;2.65;;
71236;SDS011;58984;51.960;5.582;2023-12-20T13:41:13;10.02;;;3.35;;
71236;SDS011;58984;51.960;5.582;2023-12-20T13:43:39;10.63;;;3.47;;
71236;SDS011;58984;51.960;5.582;2023-12-20T13:46:04;5.55;;;3.20;;
71236;SDS011;58984;51.960;5.582;2023-12-20T13:48:30;7.28;;;2.83;;
71236;SDS011;58984;51.960;5.582;2023-12-20T13:50:56;7.22;;;2.50;;
71236;SDS011;58984;51.960;5.582;2023-12-20T13:53:21;7.07;;;2.65;;
71236;SDS011;58984;51.960;5.582;2023-12-20T13:55:47;11.18;;;2.92;;
71236;SDS011;58984;51.960;5.582;2023-12-20T13:58:13;5.57;;;2.75;;
71236;SDS011;58984;51.960;5.582;2023-12-20T14:00:39;6.57;;;2.67;;
71236;SDS011;58984;51.960;5.582;2023-12-20T14:03:05;7.45;;;3.10;;
71236;SDS011;58984;51.960;5.582;2023-12-20T14:05:31;6.93;;;2.92;;
71236;SDS011;58984;51.960;5.582;2023-12-20T14:07:56;6.25;;;2.70;;
71236;SDS011;58984;51.960;5.582;2023-12-20T14:10:22;8.52;;;3.42;;
71236;SDS011;58984;51.960;5.582;2023-12-20T14:12:48;8.60;;;3.10;;
71236;SDS011;58984;51.960;5.582;2023-12-20T14:15:14;7.45;;;3.00;;
71236;SDS011;58984;51.960;5.582;2023-12-20T14:17:40;5.28;;;2.78;;
71236;SDS011;58984;51.960;5.582;2023-12-20T14:20:07;8.18;;;2.85;;
71236;SDS011;58984;51.960;5.582;2023-12-20T14:22:34;7.50;;;2.60;;
71236;SDS011;58984;51.960;5.582;2023-12-20T14:25:01;6.88;;;3.00;;
71236;SDS011;58984;51.960;5.582;2023-12-20T14:27:27;9.98;;;3.08;;
71236;SDS011;58984;51.960;5.582;2023-12-20T14:29:53;7.53;;;3.03;;
71236;SDS011;58984;51.960;5.582;2023-12-20T14:32:19;9.02;;;3.40;;
71236;SDS011;58984;51.960;5.582;2023-12-20T14:34:45;7.63;;;3.10;;
71236;SDS011;58984;51.960;5.582;2023-12-20T14:37:11;8.43;;;2.60;;
71236;SDS011;58984;51.960;5.582;2023-12-20T14:39:37;5.78;;;2.67;;